createdAt,value
2022-09-12T00:00:20.791Z,18.80
2022-09-12T00:01:20.832Z,18.70
2022-09-12T00:02:20.804Z,20.20
2022-09-12T00:03:20.732Z,16.20
2022-09-12T00:04:20.716Z,17.30
2022-09-12T00:05:20.697Z,18.10
2022-09-12T00:06:23.077Z,17.90
2022-09-12T00:07:20.658Z,18.20
2022-09-12T00:08:20.659Z,17.30
2022-09-12T00:09:20.622Z,18.80
2022-09-12T00:10:20.606Z,17.70
2022-09-12T00:11:20.585Z,19.70
2022-09-12T00:12:20.565Z,17.10
2022-09-12T00:13:20.545Z,17.80
2022-09-12T00:14:20.531Z,17.30
2022-09-12T00:15:20.508Z,18.30
2022-09-12T00:16:20.532Z,18.30
2022-09-12T00:17:20.472Z,18.70
2022-09-12T00:18:20.452Z,19.90
2022-09-12T00:19:20.433Z,19.20
2022-09-12T00:20:20.413Z,18.20
2022-09-12T00:21:20.394Z,19.70
2022-09-12T00:22:20.376Z,19.40
2022-09-12T00:23:20.359Z,22.10
2022-09-12T00:24:20.357Z,19.20
2022-09-12T00:25:20.320Z,19.00
2022-09-12T00:26:20.298Z,21.10
2022-09-12T00:27:20.283Z,18.10
2022-09-12T00:28:20.264Z,20.80
2022-09-12T00:29:20.247Z,20.80
2022-09-12T00:30:20.226Z,21.90
2022-09-12T00:31:20.274Z,19.60
2022-09-12T00:32:20.188Z,18.80
2022-09-12T00:33:20.169Z,21.00
2022-09-12T00:34:20.149Z,22.00
2022-09-12T00:35:20.135Z,18.80
2022-09-12T00:36:20.112Z,20.00
2022-09-12T00:37:20.094Z,20.60
2022-09-12T00:38:20.075Z,20.70
2022-09-12T00:39:20.056Z,21.20
2022-09-12T00:40:20.054Z,20.80
2022-09-12T00:41:20.025Z,18.00
2022-09-12T00:42:19.996Z,19.30
2022-09-12T00:43:19.983Z,19.20
2022-09-12T00:44:19.960Z,20.20
2022-09-12T00:45:19.942Z,22.30
2022-09-12T00:46:19.924Z,21.80
2022-09-12T00:47:19.906Z,19.20
2022-09-12T00:48:19.886Z,24.10
2022-09-12T00:49:19.869Z,21.10
2022-09-12T00:50:19.848Z,21.10
2022-09-12T00:51:19.831Z,22.00
2022-09-12T00:52:19.811Z,21.60
2022-09-12T00:53:19.793Z,24.00
2022-09-12T00:54:19.773Z,20.60
2022-09-12T00:55:19.758Z,23.60
2022-09-12T00:56:19.757Z,19.50
2022-09-12T00:57:19.717Z,21.30
2022-09-12T00:58:19.695Z,20.90
2022-09-12T00:59:19.678Z,19.50
2022-09-12T01:00:19.658Z,20.00
2022-09-12T01:01:19.780Z,21.60
2022-09-12T01:02:19.656Z,21.10
2022-09-12T01:03:19.601Z,20.70
2022-09-12T01:04:23.416Z,19.60
2022-09-12T01:05:19.563Z,23.20
2022-09-12T01:06:19.543Z,18.90
2022-09-12T01:07:19.527Z,20.20
2022-09-12T01:08:19.505Z,25.10
2022-09-12T01:09:19.487Z,23.50
2022-09-12T01:10:19.466Z,22.50
2022-09-12T01:11:19.448Z,22.40
2022-09-12T01:12:19.450Z,24.00
2022-09-12T01:13:19.411Z,23.90
2022-09-12T01:14:19.389Z,25.70
2022-09-12T01:15:19.374Z,20.90
2022-09-12T01:16:19.434Z,20.50
2022-09-12T01:17:19.336Z,20.60
2022-09-12T01:18:19.315Z,24.50
2022-09-12T01:19:19.296Z,22.80
2022-09-12T01:20:19.276Z,22.80
2022-09-12T01:21:19.257Z,21.60
2022-09-12T01:22:19.236Z,24.20
2022-09-12T01:23:19.219Z,24.30
2022-09-12T01:24:19.199Z,24.70
2022-09-12T01:25:19.186Z,24.10
2022-09-12T01:26:19.166Z,21.40
2022-09-12T01:27:19.147Z,23.40
2022-09-12T01:28:19.214Z,22.20
2022-09-12T01:29:19.108Z,21.60
2022-09-12T01:30:19.086Z,25.40
2022-09-12T01:31:19.067Z,24.90
2022-09-12T01:32:19.079Z,23.00
2022-09-12T01:33:19.030Z,21.00
2022-09-12T01:34:19.008Z,24.70
2022-09-12T01:35:18.995Z,22.70
2022-09-12T01:36:18.973Z,22.30
2022-09-12T01:37:18.952Z,23.10
2022-09-12T01:38:18.931Z,21.10
2022-09-12T01:39:18.917Z,20.80
2022-09-12T01:40:18.897Z,21.30
2022-09-12T01:41:18.877Z,20.40
2022-09-12T01:42:18.857Z,22.80
2022-09-12T01:43:18.859Z,20.20
2022-09-12T01:44:18.835Z,19.90
2022-09-12T01:45:18.800Z,22.30
2022-09-12T01:46:18.779Z,22.60
2022-09-12T01:47:18.760Z,20.80
2022-09-12T01:48:18.741Z,21.50
2022-09-12T01:49:18.723Z,20.90
2022-09-12T01:50:18.710Z,23.00
2022-09-12T01:51:18.688Z,18.30
2022-09-12T01:52:18.665Z,23.30
2022-09-12T01:53:18.646Z,22.30
2022-09-12T01:54:18.626Z,22.50
2022-09-12T01:55:18.611Z,22.00
2022-09-12T01:56:18.589Z,22.10
2022-09-12T01:57:18.570Z,21.90
2022-09-12T01:58:18.553Z,22.20
2022-09-12T01:59:18.533Z,25.90
2022-09-12T02:00:18.528Z,21.70
2022-09-12T02:01:18.528Z,25.80
2022-09-12T02:02:18.510Z,25.00
2022-09-12T02:03:18.456Z,22.90
2022-09-12T02:04:18.437Z,23.80
2022-09-12T02:05:18.420Z,23.80
2022-09-12T02:06:18.397Z,24.80
2022-09-12T02:07:18.378Z,24.70
2022-09-12T02:08:18.418Z,26.20
2022-09-12T02:09:18.341Z,27.70
2022-09-12T02:10:18.322Z,25.80
2022-09-12T02:11:18.302Z,29.80
2022-09-12T02:12:18.285Z,26.50
2022-09-12T02:13:18.262Z,32.50
2022-09-12T02:14:18.246Z,29.20
2022-09-12T02:15:18.224Z,28.50
2022-09-12T02:16:18.274Z,29.90
2022-09-12T02:17:18.188Z,27.20
2022-09-12T02:18:18.166Z,26.20
2022-09-12T02:19:18.150Z,26.70
2022-09-12T02:20:43.995Z,27.80
2022-09-12T02:21:18.111Z,26.40
2022-09-12T02:22:18.089Z,28.60
2022-09-12T02:23:18.071Z,27.60
2022-09-12T02:24:18.051Z,26.70
2022-09-12T02:25:18.034Z,31.90
2022-09-12T02:26:18.012Z,34.40
2022-09-12T02:27:17.997Z,31.10
2022-09-12T02:28:17.975Z,29.50
2022-09-12T02:29:17.955Z,33.70
2022-09-12T02:30:17.934Z,30.70
2022-09-12T02:31:17.919Z,26.70
2022-09-12T02:32:17.916Z,29.70
2022-09-12T02:33:17.880Z,30.90
2022-09-12T02:34:17.856Z,31.80
2022-09-12T02:35:17.852Z,30.70
2022-09-12T02:36:17.827Z,30.80
2022-09-12T02:37:17.809Z,28.70
2022-09-12T02:38:17.782Z,29.00
2022-09-12T02:39:17.763Z,31.70
2022-09-12T02:40:17.816Z,32.30
2022-09-12T02:41:17.726Z,29.50
2022-09-12T02:42:17.705Z,31.30
2022-09-12T02:43:17.686Z,30.00
2022-09-12T02:44:17.666Z,33.30
2022-09-12T02:45:17.656Z,28.30
2022-09-12T02:46:17.629Z,29.40
2022-09-12T02:47:17.610Z,28.70
2022-09-12T02:48:17.623Z,31.10
2022-09-12T02:49:17.570Z,30.80
2022-09-12T02:50:17.550Z,30.30
2022-09-12T02:51:22.925Z,30.70
2022-09-12T02:52:17.510Z,32.30
2022-09-12T02:53:17.491Z,29.40
2022-09-12T02:54:17.471Z,30.80
2022-09-12T02:55:17.456Z,29.10
2022-09-12T02:56:17.435Z,31.30
2022-09-12T02:57:21.864Z,30.60
2022-09-12T02:58:17.394Z,32.80
2022-09-12T02:59:17.377Z,34.50
2022-09-12T03:00:17.356Z,33.10
2022-09-12T03:01:17.389Z,33.20
2022-09-12T03:02:17.350Z,30.80
2022-09-12T03:03:17.300Z,33.30
2022-09-12T03:04:17.297Z,33.10
2022-09-12T03:05:17.262Z,33.80
2022-09-12T03:06:17.240Z,31.20
2022-09-12T03:07:17.226Z,32.40
2022-09-12T03:08:17.202Z,32.40
2022-09-12T03:09:17.186Z,31.90
2022-09-12T03:10:17.164Z,32.50
2022-09-12T03:11:17.146Z,36.20
2022-09-12T03:12:17.124Z,34.30
2022-09-12T03:13:17.111Z,33.90
2022-09-12T03:14:17.085Z,31.10
2022-09-12T03:15:17.067Z,32.90
2022-09-12T03:16:17.083Z,33.80
2022-09-12T03:17:17.028Z,34.00
2022-09-12T03:18:17.006Z,35.40
2022-09-12T03:19:16.990Z,34.70
2022-09-12T03:20:16.991Z,33.20
2022-09-12T03:21:16.950Z,31.90
2022-09-12T03:22:16.932Z,34.80
2022-09-12T03:23:16.920Z,35.40
2022-09-12T03:24:16.893Z,34.80
2022-09-12T03:25:16.877Z,35.90
2022-09-12T03:26:16.856Z,36.70
2022-09-12T03:27:16.837Z,36.50
2022-09-12T03:28:16.817Z,38.00
2022-09-12T03:29:16.794Z,36.50
2022-09-12T03:30:16.775Z,35.80
2022-09-12T03:31:16.761Z,37.10
2022-09-12T03:32:16.733Z,37.60
2022-09-12T03:33:16.717Z,35.20
2022-09-12T03:34:16.697Z,40.20
2022-09-12T03:35:19.848Z,38.10
2022-09-12T03:36:16.679Z,34.10
2022-09-12T03:37:16.638Z,34.10
2022-09-12T03:38:16.619Z,40.70
2022-09-12T03:39:16.602Z,37.30
2022-09-12T03:40:16.602Z,43.10
2022-09-12T03:41:16.562Z,37.70
2022-09-12T03:42:16.543Z,41.10
2022-09-12T03:43:16.523Z,43.40
2022-09-12T03:44:16.506Z,40.70
2022-09-12T03:45:16.485Z,36.20
2022-09-12T03:46:16.462Z,38.10
2022-09-12T03:47:16.446Z,35.90
2022-09-12T03:48:16.424Z,37.00
2022-09-12T03:49:16.411Z,35.20
2022-09-12T03:50:16.383Z,34.20
2022-09-12T03:51:16.371Z,42.90
2022-09-12T03:52:16.365Z,34.50
2022-09-12T03:53:17.393Z,35.40
2022-09-12T03:54:16.308Z,36.30
2022-09-12T03:55:16.287Z,36.10
2022-09-12T03:56:16.268Z,35.70
2022-09-12T03:57:16.249Z,35.90
2022-09-12T03:58:16.234Z,35.40
2022-09-12T03:59:16.215Z,37.20
2022-09-12T04:00:19.718Z,39.40
2022-09-12T04:01:16.214Z,36.00
2022-09-12T04:02:16.224Z,41.90
2022-09-12T04:03:16.131Z,39.30
2022-09-12T04:04:16.109Z,43.40
2022-09-12T04:05:16.089Z,45.40
2022-09-12T04:06:16.073Z,42.60
2022-09-12T04:07:16.052Z,39.40
2022-09-12T04:08:16.050Z,43.00
2022-09-12T04:09:16.014Z,47.50
2022-09-12T04:10:16.419Z,46.80
2022-09-12T04:11:15.975Z,45.40
2022-09-12T04:12:15.951Z,47.10
2022-09-12T04:13:15.934Z,46.70
2022-09-12T04:14:15.911Z,47.70
2022-09-12T04:15:15.895Z,46.70
2022-09-12T04:16:15.893Z,41.50
2022-09-12T04:17:15.855Z,42.00
2022-09-12T04:18:15.831Z,45.80
2022-09-12T04:19:15.816Z,50.70
2022-09-12T04:20:15.795Z,45.60
2022-09-12T04:21:15.775Z,43.70
2022-09-12T04:22:15.753Z,47.50
2022-09-12T04:23:15.735Z,43.00
2022-09-12T04:24:15.731Z,43.10
2022-09-12T04:25:15.695Z,46.60
2022-09-12T04:26:15.674Z,44.10
2022-09-12T04:27:15.658Z,45.90
2022-09-12T04:28:15.635Z,43.10
2022-09-12T04:29:15.614Z,43.70
2022-09-12T04:30:15.597Z,42.90
2022-09-12T04:31:15.611Z,44.40
2022-09-12T04:32:15.555Z,43.60
2022-09-12T04:33:15.538Z,41.70
2022-09-12T04:34:15.516Z,39.90
2022-09-12T04:35:15.495Z,44.40
2022-09-12T04:36:15.476Z,43.30
2022-09-12T04:37:15.457Z,40.20
2022-09-12T04:38:15.437Z,40.60
2022-09-12T04:39:15.417Z,42.40
2022-09-12T04:40:15.499Z,41.40
2022-09-12T04:41:15.378Z,43.50
2022-09-12T04:42:15.359Z,40.00
2022-09-12T04:43:15.339Z,44.00
2022-09-12T04:44:15.319Z,45.50
2022-09-12T04:45:15.297Z,41.40
2022-09-12T04:46:15.299Z,40.20
2022-09-12T04:47:15.257Z,40.00
2022-09-12T04:48:15.241Z,42.50
2022-09-12T04:49:15.214Z,41.20
2022-09-12T04:50:15.199Z,40.50
2022-09-12T04:51:15.178Z,41.60
2022-09-12T04:52:15.157Z,40.90
2022-09-12T04:53:15.138Z,43.80
2022-09-12T04:54:15.123Z,43.10
2022-09-12T04:55:15.096Z,41.60
2022-09-12T04:56:15.094Z,43.70
2022-09-12T04:57:15.055Z,45.40
2022-09-12T04:58:15.040Z,48.50
2022-09-12T04:59:15.016Z,43.60
2022-09-12T05:00:14.998Z,46.80
2022-09-12T05:01:15.012Z,46.80
2022-09-12T05:02:14.984Z,44.30
2022-09-12T05:03:14.936Z,43.70
2022-09-12T05:04:14.919Z,43.70
2022-09-12T05:05:14.896Z,47.20
2022-09-12T05:06:14.880Z,48.30
2022-09-12T05:07:14.859Z,47.70
2022-09-12T05:08:14.839Z,49.20
2022-09-12T05:09:14.816Z,48.50
2022-09-12T05:10:14.798Z,47.80
2022-09-12T05:11:14.787Z,45.90
2022-09-12T05:12:14.781Z,49.80
2022-09-12T05:13:14.736Z,45.80
2022-09-12T05:14:14.717Z,49.70
2022-09-12T05:15:14.699Z,49.90
2022-09-12T05:16:14.700Z,49.40
2022-09-12T05:17:14.655Z,48.50
2022-09-12T05:18:14.637Z,42.90
2022-09-12T05:19:14.617Z,46.10
2022-09-12T05:20:14.598Z,47.00
2022-09-12T05:21:14.576Z,49.00
2022-09-12T05:22:14.557Z,44.90
2022-09-12T05:23:14.539Z,45.30
2022-09-12T05:24:14.518Z,42.80
2022-09-12T05:25:14.498Z,43.50
2022-09-12T05:26:14.478Z,46.80
2022-09-12T05:27:14.456Z,43.00
2022-09-12T05:28:14.467Z,43.70
2022-09-12T05:29:14.415Z,45.90
2022-09-12T05:30:14.398Z,41.20
2022-09-12T05:31:14.376Z,44.60
2022-09-12T05:32:14.358Z,45.60
2022-09-12T05:33:14.335Z,44.10
2022-09-12T05:34:14.317Z,42.80
2022-09-12T05:35:14.293Z,43.60
2022-09-12T05:36:14.276Z,40.00
2022-09-12T05:37:14.256Z,41.70
2022-09-12T05:38:14.238Z,42.30
2022-09-12T05:39:14.215Z,46.80
2022-09-12T05:40:14.268Z,44.70
2022-09-12T05:41:17.667Z,40.30
2022-09-12T05:42:14.156Z,39.90
2022-09-12T05:43:14.136Z,40.60
2022-09-12T05:44:14.181Z,43.50
2022-09-12T05:45:14.093Z,41.20
2022-09-12T05:46:14.156Z,42.10
2022-09-12T05:47:14.056Z,44.50
2022-09-12T05:48:14.034Z,45.40
2022-09-12T05:49:14.014Z,44.90
2022-09-12T05:50:13.997Z,41.00
2022-09-12T05:51:13.978Z,40.50
2022-09-12T05:52:13.955Z,45.70
2022-09-12T05:53:13.934Z,43.00
2022-09-12T05:54:13.916Z,43.40
2022-09-12T05:55:13.891Z,43.60
2022-09-12T05:56:13.877Z,41.50
2022-09-12T05:57:13.852Z,43.10
2022-09-12T05:58:13.833Z,42.00
2022-09-12T05:59:13.811Z,43.30
2022-09-12T06:00:13.887Z,43.30
2022-09-12T06:01:13.824Z,41.10
2022-09-12T06:02:13.778Z,39.20
2022-09-12T06:03:13.731Z,42.40
2022-09-12T06:04:13.712Z,43.20
2022-09-12T06:05:13.695Z,42.30
2022-09-12T06:06:13.673Z,40.60
2022-09-12T06:07:13.654Z,41.60
2022-09-12T06:08:13.633Z,44.60
2022-09-12T06:09:13.609Z,41.20
2022-09-12T06:10:13.595Z,40.70
2022-09-12T06:11:13.570Z,40.90
2022-09-12T06:12:13.552Z,46.60
2022-09-12T06:13:13.530Z,41.50
2022-09-12T06:14:13.510Z,49.40
2022-09-12T06:15:13.489Z,41.00
2022-09-12T06:16:13.585Z,44.80
2022-09-12T06:17:13.449Z,44.00
2022-09-12T06:18:13.429Z,41.60
2022-09-12T06:19:13.409Z,42.30
2022-09-12T06:20:13.391Z,43.20
2022-09-12T06:21:13.367Z,38.60
2022-09-12T06:22:13.348Z,40.70
2022-09-12T06:23:13.330Z,41.40
2022-09-12T06:24:13.311Z,44.50
2022-09-12T06:25:13.292Z,44.40
2022-09-12T06:26:13.271Z,38.90
2022-09-12T06:27:13.250Z,37.40
2022-09-12T06:28:13.234Z,41.60
2022-09-12T06:29:13.259Z,40.60
2022-09-12T06:30:13.188Z,43.50
2022-09-12T06:31:13.231Z,41.20
2022-09-12T06:32:13.168Z,41.50
2022-09-12T06:33:13.126Z,41.60
2022-09-12T06:34:13.336Z,38.10
2022-09-12T06:35:13.110Z,37.10
2022-09-12T06:36:13.070Z,36.70
2022-09-12T06:37:13.045Z,38.50
2022-09-12T06:38:13.029Z,35.00
2022-09-12T06:39:13.005Z,38.10
2022-09-12T06:40:13.024Z,40.80
2022-09-12T06:41:12.965Z,37.50
2022-09-12T06:42:12.951Z,35.80
2022-09-12T06:43:12.926Z,36.70
2022-09-12T06:44:12.911Z,34.40
2022-09-12T06:45:12.883Z,36.70
2022-09-12T06:46:12.917Z,36.10
2022-09-12T06:47:12.844Z,36.50
2022-09-12T06:48:12.871Z,34.40
2022-09-12T06:49:12.802Z,32.50
2022-09-12T06:50:12.788Z,31.50
2022-09-12T06:51:12.764Z,32.80
2022-09-12T06:52:12.745Z,35.20
2022-09-12T06:53:12.724Z,32.10
2022-09-12T06:54:12.704Z,29.90
2022-09-12T06:55:16.213Z,36.90
2022-09-12T06:56:12.672Z,33.50
2022-09-12T06:57:12.643Z,31.30
2022-09-12T06:58:12.624Z,32.00
2022-09-12T06:59:12.618Z,30.80
2022-09-12T07:00:12.587Z,29.80
2022-09-12T07:01:12.651Z,29.30
2022-09-12T07:02:12.654Z,30.80
2022-09-12T07:03:12.523Z,37.30
2022-09-12T07:04:12.524Z,30.20
2022-09-12T07:05:12.482Z,28.20
2022-09-12T07:06:12.468Z,29.80
2022-09-12T07:07:12.446Z,30.60
2022-09-12T07:08:12.431Z,32.10
2022-09-12T07:09:12.407Z,33.30
2022-09-12T07:10:12.397Z,31.70
2022-09-12T07:11:12.446Z,33.40
2022-09-12T07:12:12.349Z,27.40
2022-09-12T07:13:12.322Z,30.50
2022-09-12T07:14:12.306Z,29.60
2022-09-12T07:15:12.285Z,30.30
2022-09-12T07:16:16.011Z,29.20
2022-09-12T07:17:12.311Z,26.10
2022-09-12T07:18:12.226Z,28.30
2022-09-12T07:19:12.220Z,28.50
2022-09-12T07:20:12.206Z,28.30
2022-09-12T07:21:12.165Z,27.60
2022-09-12T07:22:12.150Z,31.10
2022-09-12T07:23:12.126Z,29.50
2022-09-12T07:24:12.113Z,25.70
2022-09-12T07:25:12.085Z,29.40
2022-09-12T07:26:12.109Z,28.00
2022-09-12T07:27:12.050Z,28.20
2022-09-12T07:28:12.029Z,27.00
2022-09-12T07:29:35.914Z,29.70
2022-09-12T07:30:12.009Z,27.50
2022-09-12T07:31:12.024Z,25.50
2022-09-12T07:32:11.949Z,26.30
2022-09-12T07:33:11.929Z,29.40
2022-09-12T07:34:11.911Z,24.70
2022-09-12T07:35:11.888Z,31.50
2022-09-12T07:36:11.908Z,29.00
2022-09-12T07:37:11.849Z,23.30
2022-09-12T07:38:11.841Z,25.00
2022-09-12T07:39:11.811Z,29.50
2022-09-12T07:40:11.839Z,24.20
2022-09-12T07:41:11.772Z,30.20
2022-09-12T07:42:11.754Z,24.80
2022-09-12T07:43:11.735Z,25.90
2022-09-12T07:44:11.714Z,25.30
2022-09-12T07:45:11.694Z,24.50
2022-09-12T07:46:11.735Z,26.10
2022-09-12T07:47:11.656Z,24.80
2022-09-12T07:48:11.636Z,24.90
2022-09-12T07:49:11.612Z,24.70
2022-09-12T07:50:11.596Z,28.10
2022-09-12T07:51:11.579Z,23.90
2022-09-12T07:52:11.574Z,24.90
2022-09-12T07:53:11.570Z,26.00
2022-09-12T07:54:11.516Z,24.80
2022-09-12T07:55:11.498Z,23.50
2022-09-12T07:56:11.497Z,24.90
2022-09-12T07:57:11.454Z,24.90
2022-09-12T07:58:11.437Z,24.20
2022-09-12T07:59:11.426Z,24.70
2022-09-12T08:00:11.397Z,24.00
2022-09-12T08:01:11.455Z,23.60
2022-09-12T08:02:16.033Z,27.00
2022-09-12T08:03:11.342Z,23.60
2022-09-12T08:04:11.328Z,23.20
2022-09-12T08:05:11.323Z,21.50
2022-09-12T08:06:11.292Z,22.20
2022-09-12T08:07:11.261Z,22.50
2022-09-12T08:08:11.262Z,22.30
2022-09-12T08:09:11.240Z,22.60
2022-09-12T08:10:11.205Z,23.80
2022-09-12T08:11:11.184Z,22.90
2022-09-12T08:12:11.169Z,21.50
2022-09-12T08:13:11.144Z,22.30
2022-09-12T08:14:11.187Z,22.40
2022-09-12T08:15:11.117Z,22.90
2022-09-12T08:16:11.175Z,23.40
2022-09-12T08:17:11.082Z,21.00
2022-09-12T08:18:11.049Z,23.00
2022-09-12T08:19:11.129Z,21.10
2022-09-12T08:20:11.024Z,22.10
2022-09-12T08:21:10.988Z,20.60
2022-09-12T08:22:10.971Z,21.80
2022-09-12T08:23:10.953Z,20.00
2022-09-12T08:24:10.962Z,20.70
2022-09-12T08:25:10.923Z,21.20
2022-09-12T08:26:10.899Z,20.70
2022-09-12T08:27:10.907Z,20.00
2022-09-12T08:28:10.853Z,19.10
2022-09-12T08:29:10.833Z,19.40
2022-09-12T08:30:10.815Z,25.10
2022-09-12T08:31:10.869Z,22.50
2022-09-12T08:32:10.776Z,19.00
2022-09-12T08:33:10.754Z,21.50
2022-09-12T08:34:10.804Z,23.30
2022-09-12T08:35:10.763Z,19.00
2022-09-12T08:36:10.726Z,20.80
2022-09-12T08:37:10.728Z,22.10
2022-09-12T08:38:10.660Z,21.90
2022-09-12T08:39:10.711Z,21.50
2022-09-12T08:40:10.728Z,20.80
2022-09-12T08:41:10.627Z,25.80
2022-09-12T08:43:10.605Z,20.70
2022-09-12T08:44:10.575Z,22.10
2022-09-12T08:45:10.627Z,18.60
2022-09-12T08:46:10.651Z,20.90
2022-09-12T08:47:10.529Z,20.80
2022-09-12T08:48:10.477Z,23.60
2022-09-12T08:49:10.488Z,22.30
2022-09-12T08:50:10.466Z,21.90
2022-09-12T08:51:10.472Z,18.70
2022-09-12T08:52:10.401Z,19.90
2022-09-12T08:53:10.378Z,26.90
2022-09-12T08:54:10.397Z,21.60
2022-09-12T08:55:10.358Z,21.10
2022-09-12T08:56:10.353Z,20.60
2022-09-12T08:57:10.305Z,22.10
2022-09-12T08:58:10.294Z,20.20
2022-09-12T08:59:10.258Z,19.80
2022-09-12T09:00:10.236Z,22.50
2022-09-12T09:01:10.322Z,20.00
2022-09-12T09:02:10.276Z,21.40
2022-09-12T09:03:10.185Z,17.40
2022-09-12T09:04:10.161Z,19.20
2022-09-12T09:05:10.155Z,21.30
2022-09-12T09:06:10.123Z,20.20
2022-09-12T09:07:10.107Z,19.00
2022-09-12T09:08:10.087Z,20.90
2022-09-12T09:09:10.067Z,19.80
2022-09-12T09:10:10.075Z,20.40
2022-09-12T09:11:10.030Z,26.50
2022-09-12T09:12:10.048Z,19.20
2022-09-12T09:13:09.992Z,20.60
2022-09-12T09:14:09.973Z,22.40
2022-09-12T09:15:09.955Z,21.30
2022-09-12T09:16:09.986Z,20.20
2022-09-12T09:17:09.916Z,20.80
2022-09-12T09:18:09.901Z,20.20
2022-09-12T09:19:09.891Z,19.10
2022-09-12T09:20:09.859Z,20.60
2022-09-12T09:21:09.842Z,22.70
2022-09-12T09:22:09.823Z,21.60
2022-09-12T09:23:09.806Z,20.10
2022-09-12T09:24:09.783Z,20.80
2022-09-12T09:25:09.765Z,23.30
2022-09-12T09:26:09.747Z,19.70
2022-09-12T09:27:29.992Z,19.90
2022-09-12T09:28:09.742Z,21.20
2022-09-12T09:29:09.694Z,20.80
2022-09-12T09:30:09.675Z,21.90
2022-09-12T09:31:09.702Z,21.30
2022-09-12T09:32:09.637Z,19.10
2022-09-12T09:33:09.754Z,22.20
2022-09-12T09:34:09.600Z,19.30
2022-09-12T09:35:09.582Z,21.70
2022-09-12T09:36:09.565Z,22.20
2022-09-12T09:37:09.543Z,19.90
2022-09-12T09:38:09.527Z,22.10
2022-09-12T09:39:09.509Z,24.00
2022-09-12T09:40:09.522Z,21.80
2022-09-12T09:41:09.468Z,20.40
2022-09-12T09:42:09.451Z,21.20
2022-09-12T09:43:09.439Z,20.70
2022-09-12T09:44:09.450Z,21.40
2022-09-12T09:45:09.400Z,21.20
2022-09-12T09:46:09.403Z,19.10
2022-09-12T09:47:09.362Z,19.60
2022-09-12T09:48:09.339Z,24.40
2022-09-12T09:49:09.322Z,20.70
2022-09-12T09:50:09.304Z,21.90
2022-09-12T09:51:09.303Z,21.80
2022-09-12T09:52:09.267Z,22.10
2022-09-12T09:53:09.254Z,19.50
2022-09-12T09:54:09.230Z,19.30
2022-09-12T09:55:09.216Z,20.20
2022-09-12T09:56:09.204Z,22.70
2022-09-12T09:57:09.175Z,22.50
2022-09-12T09:58:09.156Z,22.40
2022-09-12T09:59:09.140Z,19.00
2022-09-12T10:00:09.143Z,21.80
2022-09-12T10:01:09.153Z,19.40
2022-09-12T10:02:09.130Z,20.50
2022-09-12T10:03:13.214Z,22.20
2022-09-12T10:04:09.048Z,19.10
2022-09-12T10:05:09.031Z,21.10
2022-09-12T10:06:09.014Z,20.50
2022-09-12T10:07:08.997Z,23.30
2022-09-12T10:08:11.601Z,19.20
2022-09-12T10:09:08.961Z,21.00
2022-09-12T10:10:08.942Z,20.40
2022-09-12T10:11:08.930Z,20.40
2022-09-12T10:12:08.907Z,20.00
2022-09-12T10:13:08.893Z,19.40
2022-09-12T10:14:08.877Z,19.60
2022-09-12T10:15:08.857Z,17.20
2022-09-12T10:16:08.912Z,19.00
2022-09-12T10:17:08.825Z,20.70
2022-09-12T10:18:08.805Z,19.50
2022-09-12T10:19:08.862Z,17.60
2022-09-12T10:20:21.085Z,19.90
2022-09-12T10:21:08.757Z,21.60
2022-09-12T10:22:08.735Z,19.00
2022-09-12T10:23:08.726Z,19.40
2022-09-12T10:24:08.702Z,20.60
2022-09-12T10:25:08.687Z,17.50
2022-09-12T10:26:08.671Z,19.50
2022-09-12T10:27:08.655Z,19.70
2022-09-12T10:28:08.640Z,17.20
2022-09-12T10:29:08.620Z,16.40
2022-09-12T10:30:08.605Z,19.70
2022-09-12T10:31:08.633Z,16.70
2022-09-12T10:32:08.589Z,17.20
2022-09-12T10:33:08.554Z,16.60
2022-09-12T10:34:08.537Z,19.70
2022-09-12T10:35:08.525Z,17.40
2022-09-12T10:36:11.329Z,19.00
2022-09-12T10:37:08.491Z,17.40
2022-09-12T10:38:08.477Z,15.20
2022-09-12T10:39:08.456Z,18.20
2022-09-12T10:40:10.084Z,19.60
2022-09-12T10:41:08.427Z,15.30
2022-09-12T10:42:08.409Z,18.10
2022-09-12T10:43:08.395Z,17.50
2022-09-12T10:44:08.375Z,17.00
2022-09-12T10:45:08.363Z,14.30
2022-09-12T10:46:08.396Z,14.10
2022-09-12T10:47:08.334Z,11.00
2022-09-12T10:48:08.334Z,11.20
2022-09-12T10:49:08.300Z,12.90
2022-09-12T10:50:08.308Z,13.70
2022-09-12T10:51:08.267Z,13.00
2022-09-12T10:52:08.251Z,13.80
2022-09-12T10:53:08.238Z,14.20
2022-09-12T10:54:08.223Z,21.60
2022-09-12T10:55:08.205Z,15.40
2022-09-12T10:56:08.190Z,12.90
2022-09-12T10:57:08.176Z,14.00
2022-09-12T10:58:08.157Z,10.20
2022-09-12T10:59:08.146Z,13.10
2022-09-12T11:00:08.438Z,11.30
2022-09-12T11:01:08.176Z,15.30
2022-09-12T11:02:08.177Z,12.10
2022-09-12T11:03:08.080Z,13.70
2022-09-12T11:04:08.091Z,11.70
2022-09-12T11:05:08.050Z,9.00
2022-09-12T11:06:08.057Z,10.60
2022-09-12T11:07:08.021Z,12.80
2022-09-12T11:08:08.008Z,10.90
2022-09-12T11:09:07.988Z,11.20
2022-09-12T11:10:07.978Z,9.60
2022-09-12T11:11:07.959Z,9.60
2022-09-12T11:12:07.954Z,9.00
2022-09-12T11:13:07.929Z,11.40
2022-09-12T11:14:07.911Z,10.00
2022-09-12T11:15:07.898Z,7.90
2022-09-12T11:16:07.949Z,7.80
2022-09-12T11:17:11.657Z,9.70
2022-09-12T11:18:07.854Z,10.80
2022-09-12T11:20:00.314Z,10.80
2022-09-12T11:21:00.280Z,11.80
2022-09-12T11:22:00.272Z,9.70
2022-09-12T11:23:00.271Z,9.70
2022-09-12T11:24:00.234Z,11.30
2022-09-12T11:25:00.219Z,11.10
2022-09-12T11:26:00.206Z,10.50
2022-09-12T11:27:00.187Z,9.40
2022-09-12T11:28:00.171Z,9.30
2022-09-12T11:29:00.157Z,10.60
2022-09-12T11:30:00.139Z,11.40
2022-09-12T11:31:00.208Z,10.90
2022-09-12T11:32:00.109Z,9.40
2022-09-12T11:33:00.242Z,12.80
2022-09-12T11:34:00.087Z,10.40
2022-09-12T11:35:00.065Z,10.00
2022-09-12T11:36:00.063Z,9.60
2022-09-12T11:37:00.028Z,10.30
2022-09-12T11:38:00.021Z,9.50
2022-09-12T11:39:00.001Z,10.50
2022-09-12T11:40:00.012Z,8.90
2022-09-12T11:40:59.971Z,11.30
2022-09-12T11:41:59.948Z,10.60
2022-09-12T11:42:59.934Z,12.50
2022-09-12T11:44:00.013Z,12.00
2022-09-12T11:44:59.901Z,10.20
2022-09-12T11:45:59.952Z,9.90
2022-09-12T11:46:59.869Z,9.80
2022-09-12T11:47:59.862Z,11.90
2022-09-12T11:48:59.847Z,8.20
2022-09-12T11:49:59.821Z,7.60
2022-09-12T11:50:59.806Z,8.70
2022-09-12T11:51:59.810Z,8.60
2022-09-12T11:52:59.773Z,8.90
2022-09-12T11:53:59.758Z,11.00
2022-09-12T11:54:59.742Z,9.60
2022-09-12T11:55:59.728Z,8.80
2022-09-12T11:56:59.712Z,9.40
2022-09-12T11:57:59.695Z,9.90
2022-09-12T11:58:59.677Z,13.60
2022-09-12T11:59:59.710Z,12.40
2022-09-12T12:00:59.669Z,9.80
2022-09-12T12:01:59.707Z,12.90
2022-09-12T12:02:59.613Z,10.70
2022-09-12T12:03:59.631Z,9.40
2022-09-12T12:04:59.633Z,8.50
2022-09-12T12:05:59.563Z,11.50
2022-09-12T12:06:59.563Z,9.90
2022-09-12T12:07:59.553Z,10.70
2022-09-12T12:08:59.519Z,12.30
2022-09-12T12:09:59.502Z,9.50
2022-09-12T12:10:59.494Z,8.10
2022-09-12T12:11:59.469Z,10.00
2022-09-12T12:12:59.460Z,8.50
2022-09-12T12:14:03.281Z,8.30
2022-09-12T12:14:59.423Z,6.80
2022-09-12T12:15:59.422Z,6.70
2022-09-12T12:16:59.396Z,5.80
2022-09-12T12:17:59.376Z,5.50
2022-09-12T12:18:59.369Z,5.80
2022-09-12T12:20:04.711Z,5.10
2022-09-12T12:20:59.326Z,6.80
2022-09-12T12:21:59.307Z,6.30
2022-09-12T12:22:59.293Z,7.20
2022-09-12T12:23:59.293Z,7.10
2022-09-12T12:24:59.321Z,8.50
2022-09-12T12:25:59.246Z,8.00
2022-09-12T12:26:59.271Z,7.30
2022-09-12T12:27:59.224Z,7.70
2022-09-12T12:28:59.532Z,6.90
2022-09-12T12:29:59.233Z,9.70
2022-09-12T12:30:59.238Z,8.50
2022-09-12T12:31:59.167Z,7.10
2022-09-12T12:32:59.136Z,8.90
2022-09-12T12:33:59.118Z,8.60
2022-09-12T12:34:59.108Z,9.10
2022-09-12T12:35:59.083Z,9.10
2022-09-12T12:36:59.092Z,8.50
2022-09-12T12:37:59.056Z,10.20
2022-09-12T12:38:59.039Z,8.80
2022-09-12T12:39:59.109Z,9.50
2022-09-12T12:40:59.005Z,10.20
2022-09-12T12:41:58.989Z,10.10
2022-09-12T12:42:58.972Z,9.40
2022-09-12T12:43:58.956Z,10.60
2022-09-12T12:44:58.951Z,9.30
2022-09-12T12:45:58.948Z,8.90
2022-09-12T12:46:58.912Z,9.30
2022-09-12T12:47:58.894Z,11.90
2022-09-12T12:48:58.890Z,9.20
2022-09-12T12:49:58.876Z,11.00
2022-09-12T12:50:58.856Z,8.90
2022-09-12T12:51:58.831Z,10.70
2022-09-12T12:52:58.816Z,9.20
2022-09-12T12:53:58.799Z,11.00
2022-09-12T12:54:58.800Z,14.40
2022-09-12T12:55:58.782Z,9.30